Time;durP1;ratioP1;P1;durP2;ratioP2;P2;SDS_P1;SDS_P2;PMS_P1;PMS_P2;Temp;Humidity;BMP_temperature;BMP_pressure;BME280_temperature;BME280_humidity;BME280_pressure;Samples;Min_cycle;Max_cycle;Signal;HPM_P1;HPM_P2
2021/08/26 00:07:45;;;;;;;12.43;7.33;;;11.70;99.90;;;;;;5054706;28;20448;-59
2021/08/26 00:10:13;;;;;;;10.77;6.90;;;11.60;99.90;;;;;;5044520;28;20421;-59
2021/08/26 00:12:39;;;;;;;12.43;7.50;;;11.60;99.90;;;;;;5050146;22;20231;-60
2021/08/26 00:15:06;;;;;;;20.33;8.47;;;11.60;99.90;;;;;;5017145;28;20948;-60
2021/08/26 00:17:32;;;;;;;9.37;6.70;;;11.50;99.90;;;;;;5017894;28;20433;-60
2021/08/26 00:19:58;;;;;;;11.97;8.00;;;11.50;99.90;;;;;;5019326;28;20473;-60
2021/08/26 00:22:25;;;;;;;12.43;7.37;;;11.50;99.90;;;;;;5023706;28;20540;-60
2021/08/26 00:24:51;;;;;;;11.00;6.80;;;11.50;99.90;;;;;;5027156;28;20429;-60
2021/08/26 00:27:17;;;;;;;12.27;7.33;;;11.40;99.90;;;;;;5021262;28;21141;-59
2021/08/26 00:29:42;;;;;;;10.33;7.03;;;11.40;99.90;;;;;;5028225;28;20994;-60
2021/08/26 00:32:08;;;;;;;7.47;6.23;;;11.30;99.90;;;;;;5026116;28;20679;-60
2021/08/26 00:34:34;;;;;;;10.90;7.10;;;11.30;99.90;;;;;;5021136;28;20176;-60
2021/08/26 00:36:59;;;;;;;13.67;7.80;;;11.30;99.90;;;;;;5021921;28;20219;-61
2021/08/26 00:39:25;;;;;;;11.00;7.60;;;11.30;99.90;;;;;;5040640;28;20183;-61
2021/08/26 00:41:51;;;;;;;9.80;7.20;;;11.20;99.90;;;;;;5029529;28;20670;-59
2021/08/26 00:44:17;;;;;;;13.07;7.57;;;11.20;99.90;;;;;;5043169;28;20178;-60
2021/08/26 00:46:47;;;;;;;12.33;7.97;;;11.10;99.90;;;;;;5042293;28;20237;-60
2021/08/26 00:49:17;;;;;;;12.87;7.83;;;11.20;99.90;;;;;;5003457;28;20438;-60
2021/08/26 00:51:45;;;;;;;11.90;7.50;;;11.20;99.90;;;;;;5044594;28;20437;-60
2021/08/26 00:54:13;;;;;;;10.07;7.07;;;11.20;99.90;;;;;;5037009;28;20465;-60
2021/08/26 00:56:39;;;;;;;10.57;7.70;;;11.20;99.90;;;;;;5042424;28;20515;-60
2021/08/26 00:59:07;;;;;;;10.47;7.43;;;11.20;99.90;;;;;;5045570;28;20456;-62
2021/08/26 01:01:50;;;;;;;10.23;7.10;;;11.20;99.90;;;;;;5025995;28;20802;-59
2021/08/26 01:04:35;;;;;;;13.47;8.37;;;11.20;99.90;;;;;;5028451;28;20509;-59
2021/08/26 01:07:36;;;;;;;10.10;7.03;;;11.20;99.90;;;;;;5038090;28;20461;-60
2021/08/26 01:10:05;;;;;;;10.10;7.73;;;11.20;99.90;;;;;;5042238;28;20579;-61
2021/08/26 01:12:32;;;;;;;17.50;8.17;;;11.20;99.90;;;;;;5039744;28;20552;-59
2021/08/26 01:14:59;;;;;;;11.57;7.27;;;11.20;99.90;;;;;;5044896;28;20938;-60
2021/08/26 01:17:30;;;;;;;11.17;7.60;;;11.20;99.90;;;;;;5047190;28;20941;-59
2021/08/26 01:20:05;;;;;;;11.90;7.50;;;11.20;99.90;;;;;;5044527;28;20444;-60
2021/08/26 01:22:32;;;;;;;10.60;7.00;;;11.20;99.90;;;;;;5043844;28;20453;-60
2021/08/26 01:25:23;;;;;;;11.47;7.43;;;11.20;99.90;;;;;;5027736;28;20432;-60
2021/08/26 01:27:58;;;;;;;13.87;7.53;;;11.20;99.90;;;;;;5047935;28;20422;-60
2021/08/26 01:30:26;;;;;;;10.23;7.80;;;11.20;99.90;;;;;;5049922;28;20860;-61
2021/08/26 01:32:55;;;;;;;12.27;7.07;;;11.20;99.90;;;;;;5028775;28;20453;-60
2021/08/26 01:35:21;;;;;;;13.17;8.03;;;11.20;99.90;;;;;;5042474;28;20454;-60
2021/08/26 01:37:47;;;;;;;12.13;8.13;;;11.20;99.90;;;;;;5044131;28;20913;-59
2021/08/26 01:40:13;;;;;;;10.83;7.80;;;11.20;99.90;;;;;;5044755;28;20448;-59
2021/08/26 01:42:40;;;;;;;10.47;8.20;;;11.30;99.90;;;;;;5047887;28;20461;-61
2021/08/26 01:45:07;;;;;;;14.43;8.63;;;11.30;99.90;;;;;;5042070;28;20289;-60
2021/08/26 01:47:34;;;;;;;12.10;8.47;;;11.30;99.90;;;;;;5042884;28;21021;-61
2021/08/26 01:50:00;;;;;;;18.73;7.90;;;11.30;99.90;;;;;;5043497;28;22074;-60
2021/08/26 01:52:27;;;;;;;14.90;7.70;;;11.40;99.90;;;;;;5049814;28;21078;-61
2021/08/26 01:54:59;;;;;;;12.60;7.30;;;11.40;99.90;;;;;;5043731;28;20172;-60
2021/08/26 01:57:26;;;;;;;12.90;8.03;;;11.30;99.90;;;;;;5049708;28;20519;-59
2021/08/26 01:59:53;;;;;;;10.40;7.27;;;11.30;99.90;;;;;;5046227;28;20432;-59
2021/08/26 02:02:19;;;;;;;14.73;7.53;;;11.30;99.90;;;;;;5026995;28;20453;-59
2021/08/26 02:04:44;;;;;;;11.43;7.13;;;11.20;99.90;;;;;;5042434;28;20433;-60
2021/08/26 02:07:11;;;;;;;13.03;7.67;;;11.20;99.90;;;;;;5047314;28;20495;-60
2021/08/26 02:09:37;;;;;;;12.47;7.90;;;11.20;99.90;;;;;;5044156;28;20223;-59
2021/08/26 02:12:03;;;;;;;10.20;7.23;;;11.10;99.90;;;;;;5043796;28;20458;-60
2021/08/26 02:14:28;;;;;;;18.63;8.40;;;11.10;99.90;;;;;;5044149;28;20175;-60
2021/08/26 02:16:54;;;;;;;12.10;7.77;;;11.00;99.90;;;;;;5048462;28;20461;-60
2021/08/26 02:19:20;;;;;;;12.10;7.77;;;11.00;99.90;;;;;;5023383;28;20184;-59
2021/08/26 02:21:45;;;;;;;10.53;7.67;;;11.00;99.90;;;;;;5041927;28;20260;-62
2021/08/26 02:24:13;;;;;;;13.43;7.77;;;10.90;99.90;;;;;;5046852;28;20171;-61
2021/08/26 02:26:39;;;;;;;10.60;7.60;;;10.90;99.90;;;;;;5041622;28;20183;-59
2021/08/26 02:29:05;;;;;;;12.40;7.80;;;10.80;99.90;;;;;;5042906;28;20437;-60
2021/08/26 02:31:30;;;;;;;15.17;8.40;;;10.80;99.90;;;;;;5045876;28;21351;-60
2021/08/26 02:33:56;;;;;;;13.23;8.77;;;10.80;99.90;;;;;;5041536;28;20450;-59
2021/08/26 02:36:22;;;;;;;11.73;7.63;;;10.70;99.90;;;;;;5043868;28;20290;-60
2021/08/26 02:38:49;;;;;;;9.90;7.13;;;10.70;99.90;;;;;;5044026;28;20498;-60
2021/08/26 02:41:15;;;;;;;10.40;7.80;;;10.70;99.90;;;;;;5024704;28;20179;-60
2021/08/26 02:43:40;;;;;;;9.63;7.03;;;10.60;99.90;;;;;;5040492;28;20445;-60
2021/08/26 02:46:06;;;;;;;14.73;7.30;;;10.60;99.90;;;;;;5040199;28;20178;-60
2021/08/26 02:48:31;;;;;;;10.27;7.70;;;10.60;99.90;;;;;;5038742;28;20297;-60
2021/08/26 02:50:57;;;;;;;12.73;7.17;;;10.60;99.90;;;;;;5042680;28;20225;-59
2021/08/26 02:53:23;;;;;;;11.43;7.83;;;10.60;99.90;;;;;;5040910;28;20199;-60
2021/08/26 02:55:48;;;;;;;12.17;8.73;;;10.50;99.90;;;;;;5022896;28;20209;-59
2021/08/26 02:58:14;;;;;;;11.10;6.90;;;10.50;99.90;;;;;;5040710;28;20163;-59
2021/08/26 03:00:40;;;;;;;10.30;7.47;;;10.50;99.90;;;;;;5040398;28;20183;-60
2021/08/26 03:03:06;;;;;;;11.70;7.30;;;10.50;99.90;;;;;;5041261;28;20727;-61
2021/08/26 03:05:32;;;;;;;10.93;7.43;;;10.50;99.90;;;;;;5039713;28;20512;-60
2021/08/26 03:07:57;;;;;;;12.57;8.07;;;10.50;99.90;;;;;;5039477;28;20179;-59
2021/08/26 03:10:24;;;;;;;14.20;7.33;;;10.40;99.90;;;;;;5042119;28;20828;-59
2021/08/26 03:12:50;;;;;;;12.43;7.47;;;10.40;99.90;;;;;;5043966;28;20209;-60
2021/08/26 03:15:16;;;;;;;11.57;7.70;;;10.40;99.90;;;;;;5039609;28;20437;-59
2021/08/26 03:17:41;;;;;;;11.90;7.97;;;10.40;99.90;;;;;;5021603;28;20181;-59
2021/08/26 03:20:08;;;;;;;13.73;8.23;;;10.30;99.90;;;;;;5038600;28;20186;-59
2021/08/26 03:22:34;;;;;;;10.23;7.83;;;10.30;99.90;;;;;;5046621;28;20543;-60
2021/08/26 03:24:59;;;;;;;13.60;8.77;;;10.30;99.90;;;;;;5042147;28;20437;-60
2021/08/26 03:27:25;;;;;;;13.93;9.30;;;10.30;99.90;;;;;;5044140;28;20174;-61
2021/08/26 03:29:50;;;;;;;10.63;8.60;;;10.40;99.90;;;;;;5046667;28;20186;-61
2021/08/26 03:32:16;;;;;;;12.30;8.40;;;10.30;99.90;;;;;;5040813;28;20929;-60
2021/08/26 03:34:42;;;;;;;12.87;9.27;;;10.30;99.90;;;;;;5039020;28;20249;-61
2021/08/26 03:37:07;;;;;;;12.23;8.40;;;10.30;99.90;;;;;;5035439;28;20302;-60
2021/08/26 03:39:33;;;;;;;14.10;8.50;;;10.30;99.90;;;;;;5038144;28;20183;-59
2021/08/26 03:41:59;;;;;;;11.27;8.20;;;10.30;99.90;;;;;;5041394;28;20241;-60
2021/08/26 03:44:25;;;;;;;15.00;8.63;;;10.30;99.90;;;;;;5044066;28;20798;-60
2021/08/26 03:46:50;;;;;;;12.10;7.90;;;10.30;99.90;;;;;;5043507;28;20179;-60
2021/08/26 03:49:16;;;;;;;15.53;9.33;;;10.30;99.90;;;;;;5044660;28;20526;-59
2021/08/26 03:51:41;;;;;;;12.33;8.40;;;10.20;99.90;;;;;;5044449;28;20191;-59
2021/08/26 03:54:07;;;;;;;15.80;7.90;;;10.20;99.90;;;;;;5041953;28;20182;-59
2021/08/26 03:56:33;;;;;;;14.10;7.90;;;10.20;99.90;;;;;;5044111;28;20547;-60
2021/08/26 03:58:58;;;;;;;12.67;8.80;;;10.20;99.90;;;;;;5041756;28;20198;-60
2021/08/26 04:01:24;;;;;;;12.07;8.53;;;10.20;99.90;;;;;;5041483;28;20210;-59
2021/08/26 04:03:50;;;;;;;11.30;7.40;;;10.20;99.90;;;;;;5039822;28;20194;-59
2021/08/26 04:06:15;;;;;;;10.57;7.30;;;10.20;99.90;;;;;;5041715;28;20163;-61
2021/08/26 04:08:41;;;;;;;9.00;7.63;;;10.30;99.90;;;;;;5036136;28;20186;-60
2021/08/26 04:11:07;;;;;;;10.90;6.90;;;10.30;99.90;;;;;;5042097;28;20174;-60
2021/08/26 04:13:32;;;;;;;11.83;7.73;;;10.30;99.90;;;;;;5041997;28;20199;-60
2021/08/26 04:15:58;;;;;;;11.97;7.50;;;10.30;99.90;;;;;;5038240;28;20227;-58
2021/08/26 04:18:24;;;;;;;13.10;7.53;;;10.30;99.90;;;;;;5037571;28;20171;-60
2021/08/26 04:20:49;;;;;;;19.70;7.17;;;10.20;99.90;;;;;;5035745;28;20176;-60
2021/08/26 04:23:15;;;;;;;11.53;7.87;;;10.20;99.90;;;;;;5041488;28;20270;-60
2021/08/26 04:25:41;;;;;;;12.00;7.67;;;10.10;99.90;;;;;;5042348;28;21132;-59
2021/08/26 04:28:07;;;;;;;14.73;7.53;;;10.10;99.90;;;;;;5043178;28;20187;-59
2021/08/26 04:30:33;;;;;;;12.10;7.67;;;10.10;99.90;;;;;;5040444;28;20701;-60
2021/08/26 04:33:00;;;;;;;11.07;6.70;;;10.10;99.90;;;;;;5040639;28;20450;-59
2021/08/26 04:35:26;;;;;;;9.50;7.47;;;10.10;99.90;;;;;;5041320;28;20465;-61
2021/08/26 04:37:52;;;;;;;11.50;6.77;;;10.00;99.90;;;;;;5023239;28;20452;-59
2021/08/26 04:40:17;;;;;;;13.90;7.77;;;10.10;99.90;;;;;;5037177;28;20234;-59
2021/08/26 04:42:43;;;;;;;11.73;7.23;;;10.00;99.90;;;;;;5040532;28;20199;-60
2021/08/26 04:45:09;;;;;;;12.90;8.13;;;10.00;99.90;;;;;;5039531;28;20179;-60
2021/08/26 04:47:35;;;;;;;10.43;7.60;;;10.00;99.90;;;;;;5022285;28;20182;-61
2021/08/26 04:50:01;;;;;;;10.67;7.23;;;10.00;99.90;;;;;;5044862;28;20440;-61
2021/08/26 04:52:27;;;;;;;11.50;8.50;;;10.00;99.90;;;;;;5026855;28;20479;-60
2021/08/26 04:54:52;;;;;;;12.83;8.17;;;10.00;99.90;;;;;;5039303;28;20977;-58
2021/08/26 04:57:18;;;;;;;17.33;9.87;;;10.00;99.90;;;;;;5025845;28;20202;-60
2021/08/26 04:59:43;;;;;;;14.97;8.47;;;10.00;99.90;;;;;;5040375;28;20186;-59
2021/08/26 05:02:09;;;;;;;11.30;8.07;;;10.00;99.90;;;;;;5042140;28;20203;-61
2021/08/26 05:04:35;;;;;;;12.30;8.17;;;10.00;99.90;;;;;;5042324;28;20179;-60
2021/08/26 05:07:00;;;;;;;11.63;8.70;;;10.10;99.90;;;;;;5043482;28;20182;-60
2021/08/26 05:09:26;;;;;;;13.00;7.77;;;10.10;99.90;;;;;;5030502;28;20179;-60
2021/08/26 05:11:55;;;;;;;11.27;7.53;;;10.20;99.90;;;;;;4998881;28;1112432;-61
2021/08/26 05:14:21;;;;;;;9.97;7.17;;;10.20;99.90;;;;;;5043605;28;20171;-61
2021/08/26 05:16:47;;;;;;;14.30;8.00;;;10.30;99.90;;;;;;5048921;28;20946;-60
2021/08/26 05:19:13;;;;;;;17.00;8.20;;;10.40;99.90;;;;;;5029398;28;20961;-60
2021/08/26 05:21:38;;;;;;;15.73;8.37;;;10.40;99.90;;;;;;5046775;28;20186;-60
2021/08/26 05:24:04;;;;;;;15.33;7.63;;;10.50;99.90;;;;;;5047080;28;20521;-60
2021/08/26 05:26:30;;;;;;;12.73;7.10;;;10.60;99.90;;;;;;5048838;28;20198;-60
2021/08/26 05:28:55;;;;;;;14.43;6.90;;;10.60;99.90;;;;;;5050479;28;20389;-60
2021/08/26 05:31:21;;;;;;;13.20;7.10;;;10.70;99.90;;;;;;5049405;28;20183;-60
2021/08/26 05:33:47;;;;;;;10.10;7.67;;;10.80;99.90;;;;;;5047068;28;20201;-60
2021/08/26 05:36:12;;;;;;;12.60;8.60;;;10.80;99.90;;;;;;5046336;28;20195;-61
2021/08/26 05:38:38;;;;;;;12.43;6.90;;;10.90;99.90;;;;;;5049488;28;20866;-60
2021/08/26 05:41:04;;;;;;;14.73;7.90;;;11.00;99.90;;;;;;5043265;28;20164;-60
2021/08/26 05:43:30;;;;;;;10.70;7.30;;;11.00;99.90;;;;;;5049717;28;20536;-60
2021/08/26 05:45:55;;;;;;;13.67;7.57;;;11.00;99.90;;;;;;5049736;28;20190;-60
2021/08/26 05:48:21;;;;;;;9.00;6.67;;;11.10;99.90;;;;;;5048626;28;20171;-60
2021/08/26 05:50:46;;;;;;;10.93;7.10;;;11.10;99.90;;;;;;5047869;28;20183;-60
2021/08/26 05:53:12;;;;;;;10.70;7.17;;;11.20;99.90;;;;;;5048753;28;20205;-61
2021/08/26 05:55:38;;;;;;;11.90;7.37;;;11.30;99.90;;;;;;5041007;28;20219;-60
2021/08/26 05:58:03;;;;;;;10.50;7.67;;;11.40;99.90;;;;;;5050068;28;20185;-61
2021/08/26 06:00:29;;;;;;;14.90;7.33;;;11.50;99.90;;;;;;5029858;28;20274;-60
2021/08/26 06:02:55;;;;;;;8.77;6.93;;;11.50;99.90;;;;;;5031558;28;20219;-60
2021/08/26 06:05:20;;;;;;;13.50;8.43;;;11.60;99.90;;;;;;5048611;28;20733;-60
2021/08/26 06:07:47;;;;;;;11.23;7.27;;;11.60;99.90;;;;;;5048859;28;20175;-61
2021/08/26 06:10:13;;;;;;;14.33;8.53;;;11.60;99.90;;;;;;5049818;28;20167;-61
2021/08/26 06:15:08;;;;;;;12.90;7.50;;;11.60;99.90;;;;;;5029408;28;20481;-61
2021/08/26 06:17:34;;;;;;;11.60;7.73;;;11.60;99.90;;;;;;5004600;28;20527;-61
2021/08/26 06:20:03;;;;;;;12.27;7.97;;;11.60;99.90;;;;;;5019396;28;20426;-60
2021/08/26 06:22:28;;;;;;;13.93;7.40;;;11.60;99.90;;;;;;5010508;28;20255;-62
2021/08/26 06:24:54;;;;;;;12.63;7.77;;;11.60;99.90;;;;;;5008107;28;20576;-60
2021/08/26 06:27:20;;;;;;;22.13;8.27;;;11.60;99.90;;;;;;5007414;28;20443;-60
2021/08/26 06:29:46;;;;;;;12.33;8.43;;;11.70;99.90;;;;;;5011834;28;20640;-61
2021/08/26 06:32:11;;;;;;;11.03;8.23;;;11.80;99.90;;;;;;5011901;28;20457;-61
2021/08/26 06:34:37;;;;;;;11.60;7.50;;;11.90;99.90;;;;;;5006742;28;20191;-61
2021/08/26 06:37:03;;;;;;;13.50;8.13;;;12.00;99.90;;;;;;5007036;28;20617;-60
2021/08/26 06:39:28;;;;;;;9.93;7.70;;;12.10;99.90;;;;;;5023943;28;20174;-60
2021/08/26 06:41:56;;;;;;;11.57;7.67;;;12.20;99.90;;;;;;5004896;28;20191;-60
2021/08/26 06:44:22;;;;;;;12.40;7.90;;;12.30;99.90;;;;;;5026325;28;20207;-61
2021/08/26 06:46:48;;;;;;;13.67;8.27;;;12.40;99.90;;;;;;5008461;28;20974;-60
2021/08/26 06:49:13;;;;;;;12.70;7.77;;;12.40;99.90;;;;;;5005464;28;20442;-62
2021/08/26 06:51:39;;;;;;;12.23;7.77;;;12.50;99.90;;;;;;5027475;28;20168;-60
2021/08/26 06:54:05;;;;;;;19.23;8.00;;;12.60;99.90;;;;;;5022367;28;20191;-60
2021/08/26 06:56:30;;;;;;;12.40;8.70;;;12.70;99.90;;;;;;5015216;28;20207;-59
2021/08/26 06:58:56;;;;;;;13.40;8.53;;;12.80;99.90;;;;;;5027765;28;20195;-60
2021/08/26 07:01:22;;;;;;;11.97;8.00;;;12.90;99.90;;;;;;5026682;28;20218;-60
2021/08/26 07:03:47;;;;;;;15.03;8.80;;;12.90;99.90;;;;;;5009353;28;20214;-60
2021/08/26 07:06:16;;;;;;;12.73;7.37;;;13.10;99.90;;;;;;5028210;28;20169;-60
2021/08/26 07:08:42;;;;;;;13.07;8.00;;;13.20;99.90;;;;;;5024975;28;20222;-60
2021/08/26 07:11:07;;;;;;;16.83;8.23;;;13.30;99.90;;;;;;5024589;28;20450;-62
2021/08/26 07:13:33;;;;;;;15.70;8.87;;;13.40;99.90;;;;;;5018942;28;22201;-60
2021/08/26 07:16:01;;;;;;;24.53;9.00;;;13.50;99.90;;;;;;5025946;28;20194;-61
2021/08/26 07:18:28;;;;;;;12.40;8.40;;;13.60;99.90;;;;;;5028385;28;20272;-61
2021/08/26 07:20:54;;;;;;;18.13;7.93;;;13.80;99.90;;;;;;5019495;28;20978;-61
2021/08/26 07:23:21;;;;;;;20.70;9.27;;;13.80;99.90;;;;;;5017452;28;20548;-61
2021/08/26 07:25:47;;;;;;;9.17;7.30;;;13.90;99.90;;;;;;5022127;28;20419;-61
2021/08/26 07:28:12;;;;;;;13.00;8.60;;;14.00;99.90;;;;;;5018837;28;20484;-60
2021/08/26 07:30:38;;;;;;;20.70;9.47;;;14.20;99.90;;;;;;5020071;28;20449;-61
2021/08/26 07:33:04;;;;;;;16.53;8.30;;;14.40;99.90;;;;;;5013670;28;20206;-61
2021/08/26 07:35:30;;;;;;;22.63;9.17;;;14.60;99.40;;;;;;5020772;28;20473;-60
2021/08/26 07:37:57;;;;;;;22.80;9.17;;;14.80;98.20;;;;;;5029223;28;20458;-60
2021/08/26 07:40:23;;;;;;;19.47;7.93;;;14.90;97.90;;;;;;5025647;28;20520;-60
2021/08/26 07:42:48;;;;;;;9.60;6.60;;;15.00;97.90;;;;;;5015711;28;20450;-62
2021/08/26 07:45:14;;;;;;;16.53;7.67;;;15.10;98.10;;;;;;5015779;28;20464;-61
2021/08/26 07:47:40;;;;;;;11.33;7.57;;;15.20;98.00;;;;;;5018729;28;20259;-61
2021/08/26 07:50:09;;;;;;;12.83;7.20;;;15.30;97.80;;;;;;5016745;28;20178;-60
2021/08/26 07:52:34;;;;;;;10.03;6.90;;;15.30;96.20;;;;;;5013425;28;20828;-61
2021/08/26 07:55:02;;;;;;;13.50;7.43;;;15.40;96.50;;;;;;5015552;28;20534;-60
2021/08/26 07:57:28;;;;;;;12.03;7.20;;;15.40;96.20;;;;;;5014360;28;20297;-60
2021/08/26 07:59:54;;;;;;;12.90;7.43;;;15.50;96.80;;;;;;5014320;28;20493;-62
2021/08/26 08:02:19;;;;;;;10.83;7.00;;;15.60;94.90;;;;;;5014809;28;20175;-59
2021/08/26 08:04:45;;;;;;;12.70;6.70;;;15.60;92.80;;;;;;5016196;28;20229;-59
2021/08/26 08:07:11;;;;;;;13.50;8.23;;;15.70;90.80;;;;;;5022163;28;20774;-62
2021/08/26 08:09:36;;;;;;;10.13;6.83;;;15.70;90.10;;;;;;5018621;28;20172;-59
2021/08/26 08:12:02;;;;;;;11.43;7.10;;;15.90;90.10;;;;;;5018258;28;20172;-62
2021/08/26 08:14:31;;;;;;;11.87;7.27;;;16.00;90.90;;;;;;5019665;28;20199;-60
2021/08/26 08:16:57;;;;;;;14.83;6.70;;;16.20;91.20;;;;;;5021894;28;20465;-60
2021/08/26 08:19:24;;;;;;;8.17;6.47;;;16.40;90.20;;;;;;5018014;28;20422;-62
2021/08/26 08:21:49;;;;;;;10.93;6.87;;;16.60;88.70;;;;;;5002366;28;21097;-60
2021/08/26 08:24:15;;;;;;;9.90;6.77;;;16.70;85.70;;;;;;5019240;28;20551;-61
2021/08/26 08:26:41;;;;;;;11.77;6.70;;;16.90;84.00;;;;;;5024480;28;20188;-58
2021/08/26 08:29:06;;;;;;;10.07;6.67;;;17.10;81.80;;;;;;5017934;28;22037;-57
2021/08/26 08:31:32;;;;;;;10.40;6.00;;;17.20;79.30;;;;;;5024904;28;20179;-57
2021/08/26 08:34:00;;;;;;;8.50;5.77;;;17.20;78.60;;;;;;5021407;28;20677;-58
2021/08/26 08:36:26;;;;;;;11.33;6.30;;;17.20;74.90;;;;;;5014890;28;20200;-63
2021/08/26 08:38:52;;;;;;;11.50;7.13;;;17.20;73.60;;;;;;5020520;28;20450;-57
2021/08/26 08:41:19;;;;;;;13.13;7.70;;;17.20;73.90;;;;;;5020428;28;20168;-57
2021/08/26 08:43:45;;;;;;;7.77;6.30;;;17.20;75.00;;;;;;5022705;28;20500;-57
2021/08/26 08:46:11;;;;;;;10.50;6.60;;;17.20;74.60;;;;;;5019323;28;20422;-60
2021/08/26 08:48:41;;;;;;;11.40;6.97;;;17.20;72.40;;;;;;5005612;28;20906;-58
2021/08/26 08:51:08;;;;;;;12.90;6.67;;;17.30;71.20;;;;;;5021953;28;20688;-58
2021/08/26 08:53:34;;;;;;;15.63;6.63;;;17.30;70.70;;;;;;5016969;28;20454;-60
2021/08/26 08:56:03;;;;;;;10.83;7.03;;;17.40;70.50;;;;;;5002883;28;20584;-60
2021/08/26 08:58:28;;;;;;;10.77;6.87;;;17.50;69.60;;;;;;5016117;28;20672;-63
2021/08/26 09:00:54;;;;;;;12.43;6.57;;;17.50;67.60;;;;;;5013011;28;20484;-60
2021/08/26 09:03:20;;;;;;;9.07;6.40;;;17.50;67.50;;;;;;5016033;28;20211;-63
2021/08/26 09:05:54;;;;;;;10.50;6.80;;;17.50;67.80;;;;;;5014744;28;20188;-67
2021/08/26 09:08:23;;;;;;;11.70;6.97;;;17.60;66.40;;;;;;5017396;28;20439;-60
2021/08/26 09:10:53;;;;;;;15.50;7.17;;;17.60;66.70;;;;;;5025863;28;20434;-62
2021/08/26 09:13:31;;;;;;;10.77;6.27;;;17.60;68.10;;;;;;5022503;28;20462;-61
2021/08/26 09:15:56;;;;;;;11.30;6.80;;;17.60;66.80;;;;;;5016381;28;20833;-67
2021/08/26 09:18:23;;;;;;;10.40;7.07;;;17.60;67.40;;;;;;5003158;28;20984;-62
2021/08/26 09:20:49;;;;;;;11.03;5.83;;;17.60;66.60;;;;;;5014100;28;20191;-60
2021/08/26 09:23:14;;;;;;;11.93;6.50;;;17.60;67.20;;;;;;5019471;28;20450;-63
2021/08/26 09:25:42;;;;;;;14.33;6.13;;;17.60;66.70;;;;;;5023797;28;20190;-59
2021/08/26 09:28:24;;;;;;;8.53;5.80;;;17.60;67.80;;;;;;5015975;28;20187;-61
2021/08/26 09:30:49;;;;;;;8.73;6.27;;;17.50;68.30;;;;;;5005709;28;20467;-61
2021/08/26 09:33:16;;;;;;;10.67;6.10;;;17.40;69.00;;;;;;5014579;28;21126;-61
2021/08/26 09:35:42;;;;;;;9.23;5.73;;;17.40;69.00;;;;;;5024395;28;20295;-62
2021/08/26 09:38:08;;;;;;;10.63;6.33;;;17.30;69.10;;;;;;5022643;28;20422;-64
2021/08/26 09:40:46;;;;;;;11.57;6.67;;;17.30;70.10;;;;;;5025873;28;20576;-62
2021/08/26 09:43:12;;;;;;;9.93;6.23;;;17.20;70.10;;;;;;5025821;28;20257;-64
2021/08/26 09:45:47;;;;;;;13.33;5.93;;;17.20;69.80;;;;;;5024181;28;21247;-61
2021/08/26 09:48:15;;;;;;;9.27;6.40;;;17.10;71.60;;;;;;5028448;28;20401;-60
2021/08/26 09:50:53;;;;;;;10.57;6.20;;;17.10;72.80;;;;;;5025533;28;20437;-61
2021/08/26 09:53:37;;;;;;;11.10;6.13;;;17.10;71.80;;;;;;5024515;28;20886;-60
2021/08/26 09:56:04;;;;;;;9.47;6.23;;;17.10;71.00;;;;;;5029174;28;20516;-63
2021/08/26 09:58:32;;;;;;;9.87;5.90;;;17.00;70.10;;;;;;5008651;28;20550;-62
2021/08/26 10:01:10;;;;;;;8.50;5.50;;;17.00;71.80;;;;;;5026508;28;20438;-62
2021/08/26 10:03:36;;;;;;;9.43;6.07;;;16.90;72.40;;;;;;5014160;28;20457;-60
2021/08/26 10:06:03;;;;;;;10.23;7.07;;;16.90;73.00;;;;;;5003054;28;20442;-61
2021/08/26 10:08:31;;;;;;;8.20;6.13;;;16.90;74.40;;;;;;5017929;28;20441;-60
2021/08/26 10:11:00;;;;;;;9.10;6.70;;;16.90;75.10;;;;;;5005162;28;20438;-60
2021/08/26 10:13:26;;;;;;;11.93;6.80;;;16.90;76.10;;;;;;4999484;28;20481;-61
2021/08/26 10:15:53;;;;;;;10.90;6.60;;;16.90;77.50;;;;;;5021756;28;20459;-61
2021/08/26 10:18:19;;;;;;;18.77;6.80;;;16.90;77.00;;;;;;5002175;28;20975;-62
2021/08/26 10:20:45;;;;;;;10.97;7.10;;;16.90;77.50;;;;;;5002115;28;20439;-64
2021/08/26 10:23:12;;;;;;;11.40;6.40;;;16.90;77.80;;;;;;4978248;28;20200;-65
2021/08/26 10:25:44;;;;;;;13.17;5.80;;;16.90;78.70;;;;;;5016756;28;20442;-60
2021/08/26 10:28:11;;;;;;;10.53;6.30;;;17.00;78.70;;;;;;5021741;28;20430;-62
2021/08/26 10:30:43;;;;;;;9.93;6.10;;;17.00;78.50;;;;;;5022254;28;20438;-63
2021/08/26 10:33:15;;;;;;;9.77;6.20;;;17.10;78.80;;;;;;5000051;28;20455;-66
2021/08/26 10:35:50;;;;;;;9.57;6.20;;;17.20;79.80;;;;;;5006360;28;21323;-61
2021/08/26 10:38:28;;;;;;;13.70;5.87;;;17.30;76.50;;;;;;5014359;28;20434;-66
2021/08/26 10:40:55;;;;;;;12.43;6.40;;;17.30;73.30;;;;;;5018244;28;20435;-62
2021/08/26 10:43:38;;;;;;;10.20;6.27;;;17.30;74.70;;;;;;5008147;28;20458;-62
2021/08/26 10:46:09;;;;;;;13.60;5.73;;;17.30;76.20;;;;;;5020388;28;20439;-62
2021/08/26 10:48:36;;;;;;;12.50;6.67;;;17.30;75.60;;;;;;5023576;28;21005;-60
2021/08/26 10:51:14;;;;;;;9.00;6.13;;;17.30;74.20;;;;;;5023642;28;20438;-61
2021/08/26 10:53:41;;;;;;;12.07;6.80;;;17.20;75.70;;;;;;5030405;28;20512;-61
2021/08/26 10:56:18;;;;;;;9.57;6.40;;;17.20;76.10;;;;;;5013860;28;20876;-61
2021/08/26 10:58:45;;;;;;;10.03;6.80;;;17.20;73.80;;;;;;5028163;28;20430;-61
2021/08/26 11:01:29;;;;;;;9.30;6.80;;;17.20;74.60;;;;;;5026684;28;20447;-61
2021/08/26 11:04:00;;;;;;;10.53;6.40;;;17.20;75.10;;;;;;5021197;28;20462;-62
2021/08/26 11:06:28;;;;;;;13.20;6.90;;;17.20;73.00;;;;;;5026616;28;20977;-61
2021/08/26 11:08:59;;;;;;;8.87;5.53;;;17.20;74.50;;;;;;5023123;28;20521;-60
2021/08/26 11:11:28;;;;;;;18.73;7.00;;;17.20;73.60;;;;;;5003378;28;20504;-61
2021/08/26 11:14:20;;;;;;;12.13;6.77;;;17.20;73.60;;;;;;5017713;28;20562;-62
2021/08/26 11:16:48;;;;;;;10.93;6.87;;;17.20;73.40;;;;;;5026454;28;20494;-60
2021/08/26 11:19:16;;;;;;;10.50;6.33;;;17.20;72.50;;;;;;5022524;28;20426;-61
2021/08/26 11:21:45;;;;;;;10.10;6.43;;;17.20;72.60;;;;;;5023436;28;20441;-60
2021/08/26 11:24:16;;;;;;;9.20;6.40;;;17.20;71.00;;;;;;5029201;28;20462;-59
2021/08/26 11:26:54;;;;;;;10.30;6.73;;;17.20;69.30;;;;;;5024814;28;20958;-61
2021/08/26 11:29:20;;;;;;;9.43;6.83;;;17.20;69.20;;;;;;5027074;28;20808;-60
2021/08/26 11:31:54;;;;;;;9.00;6.53;;;17.10;70.10;;;;;;5022344;28;20448;-58
2021/08/26 11:34:27;;;;;;;28.33;9.00;;;17.10;70.70;;;;;;5010153;28;20199;-60
2021/08/26 11:37:00;;;;;;;12.47;6.80;;;17.10;71.30;;;;;;5016195;28;20583;-59
2021/08/26 11:39:28;;;;;;;14.43;6.27;;;17.00;71.60;;;;;;5023071;28;20434;-61
2021/08/26 11:41:57;;;;;;;12.13;7.10;;;17.10;74.00;;;;;;4997685;28;20431;-62
2021/08/26 11:44:22;;;;;;;9.43;6.50;;;17.10;75.50;;;;;;5027324;28;20447;-60
2021/08/26 11:46:48;;;;;;;11.53;7.17;;;17.10;76.30;;;;;;5023596;28;20441;-61
2021/08/26 11:49:14;;;;;;;11.53;7.13;;;17.10;76.30;;;;;;5026547;28;20911;-61
2021/08/26 11:51:39;;;;;;;13.97;7.57;;;17.10;77.20;;;;;;5024246;28;20661;-62
2021/08/26 11:54:12;;;;;;;15.60;8.00;;;17.10;78.40;;;;;;5010773;28;20268;-60
2021/08/26 11:56:54;;;;;;;17.13;7.30;;;17.10;77.20;;;;;;5006381;28;20196;-61
2021/08/26 11:59:34;;;;;;;12.70;7.90;;;17.00;78.80;;;;;;5022201;28;20438;-59
2021/08/26 12:02:23;;;;;;;13.27;8.17;;;16.90;79.80;;;;;;5012159;28;20430;-60
2021/08/26 12:04:55;;;;;;;158.93;17.17;;;16.90;79.80;;;;;;5020350;28;20497;-62
2021/08/26 12:07:33;;;;;;;12.70;8.10;;;16.80;81.00;;;;;;5021253;28;20457;-61
2021/08/26 12:10:19;;;;;;;21.40;7.93;;;16.70;79.20;;;;;;5028300;28;20438;-61
2021/08/26 12:13:04;;;;;;;15.70;8.33;;;16.70;80.30;;;;;;5021952;28;20429;-60
2021/08/26 12:15:44;;;;;;;15.33;8.70;;;16.60;81.20;;;;;;5024395;28;20446;-64
2021/08/26 12:18:15;;;;;;;11.03;7.57;;;16.50;82.70;;;;;;5021740;28;20434;-63
2021/08/26 12:20:50;;;;;;;23.20;9.60;;;16.50;84.20;;;;;;5003126;28;20492;-60
2021/08/26 12:23:17;;;;;;;20.60;9.10;;;16.50;85.20;;;;;;5024767;28;20460;-59
2021/08/26 12:25:43;;;;;;;15.97;8.93;;;16.40;85.10;;;;;;5023917;28;20433;-60
2021/08/26 12:28:11;;;;;;;12.67;8.57;;;16.40;86.00;;;;;;4997057;28;20432;-62
2021/08/26 12:30:41;;;;;;;34.13;11.60;;;16.40;86.80;;;;;;5025504;28;20430;-63
2021/08/26 12:33:18;;;;;;;61.97;14.47;;;16.30;88.10;;;;;;5020836;28;20451;-63
2021/08/26 12:35:52;;;;;;;18.23;9.17;;;16.30;88.50;;;;;;5025244;28;20423;-61
2021/08/26 12:38:38;;;;;;;14.70;9.47;;;16.20;89.00;;;;;;4998603;28;20495;-61
2021/08/26 12:41:17;;;;;;;13.57;9.10;;;16.20;90.00;;;;;;5019985;28;20474;-62
2021/08/26 12:43:45;;;;;;;19.10;8.80;;;16.10;90.70;;;;;;5018448;28;20521;-62
2021/08/26 12:46:16;;;;;;;14.90;9.40;;;16.10;91.00;;;;;;5014714;28;20441;-61
2021/08/26 12:48:44;;;;;;;13.23;8.83;;;16.10;90.90;;;;;;5019669;28;21363;-61
2021/08/26 12:51:14;;;;;;;12.70;9.20;;;16.10;91.20;;;;;;5021396;28;20426;-60